aviador You're here:

LFBL Decoded Metar

LIMOGES in FRANCE
Report Time2017-10-22 06:00:00
UTC Time2017-10-22 06:35:23
Flight Rules vfr VFR
Wind230° at 05 kt
W.Decomp.*RWY 21: 4.7 kt HW 1.8 kt RCW
W.Rank230° ranks 18
Current wind is below 230° avg. (7.4)
Visibility9999 m
Phenomena:Shower Rain
Clouds:Broken 004 Hf
Overcast 030 Hf
Ceiling3,000 ft
Temp07°C (ISA -5)
Dew Point07°C (100% RH)
AAT4.5°C
QNH1024 hPa
Density Alt443 ft
Elevation1,319 ft
Report Wrong Elevation
Raw Report
LFBL 220600Z AUTO 23005KT 9999 OVC030/// ///TCU 07/07 Q1024 TEMPO
3000 SHRA BKN004 SCT014TCU=

Extra information for LFBL:More info

Metar Taf Metar & Taf Last 4 Metars F.Rules Stats Wind Profile Meteogram Temp Stats Airport Information Weather charts Add Link Nearby VenuesMetar ALERT Operation Metar Decoded Social comments